aviador You're here:

PAOU Decoded Metar

NELSON LAGOON in AK, USA
Report Time2017-08-22 21:56:00
UTC Time2017-08-22 22:30:10
Flight Rules mvfr MVFR
Wind270° at 03 kt
W.Decomp.*RWY 26: 3.0 kt HW 0.3 kt LCW
W.Rank270° ranks 12
Current wind is below 270° avg. (12.1)
Visibility9999 m
Phenomena:N/A
Clouds:Overcast 024 Hf
Expected CloudBase > 2,000 ft AGL from Temp-Dew spread
Ceiling2,400 ft
Temp12°C (ISA -3)
Dew Point07°C (72% RH)
AAT10.2°C
QNH1018 hPa
Density Alt-374 ft
Elevation13 ft
Report Wrong Elevation
Raw Report
PAOU 222156Z AUTO 27003KT 10SM OVC024 12/07 A3007 RMK AO2 SLP181
T01170067=

Extra information for PAOU:More info

Metar Taf Metar & Taf Last 4 Metars F.Rules Stats Wind Profile Meteogram Temp Stats Airport Information Weather charts Add Link Nearby VenuesMetar ALERT Operation Metar Decoded Social comments

AIRNAV info for PAOU